sensor_id;sensor_type;location;lat;lon;timestamp;temperature;humidity
38788;DHT22;24536;45.488;12.238;2024-01-15T00:02:13;6.60;90.90
38788;DHT22;24536;45.488;12.238;2024-01-15T00:04:39;6.60;90.90
38788;DHT22;24536;45.488;12.238;2024-01-15T00:07:06;6.70;91.00
38788;DHT22;24536;45.488;12.238;2024-01-15T00:09:32;6.70;90.90
38788;DHT22;24536;45.488;12.238;2024-01-15T00:11:58;6.80;90.80
38788;DHT22;24536;45.488;12.238;2024-01-15T00:14:24;6.80;90.60
38788;DHT22;24536;45.488;12.238;2024-01-15T00:16:49;6.80;90.60
38788;DHT22;24536;45.488;12.238;2024-01-15T00:19:17;6.80;90.60
38788;DHT22;24536;45.488;12.238;2024-01-15T00:21:43;6.70;90.70
38788;DHT22;24536;45.488;12.238;2024-01-15T00:24:08;6.60;90.70
38788;DHT22;24536;45.488;12.238;2024-01-15T00:26:34;6.60;91.00
38788;DHT22;24536;45.488;12.238;2024-01-15T00:29:00;6.60;90.80
38788;DHT22;24536;45.488;12.238;2024-01-15T00:31:25;6.70;90.90
38788;DHT22;24536;45.488;12.238;2024-01-15T00:33:51;6.70;90.80
38788;DHT22;24536;45.488;12.238;2024-01-15T00:36:17;6.70;90.70
38788;DHT22;24536;45.488;12.238;2024-01-15T00:38:44;6.80;90.70
38788;DHT22;24536;45.488;12.238;2024-01-15T00:41:10;6.80;90.80
38788;DHT22;24536;45.488;12.238;2024-01-15T00:43:35;6.80;90.70
38788;DHT22;24536;45.488;12.238;2024-01-15T00:46:05;6.80;90.70
38788;DHT22;24536;45.488;12.238;2024-01-15T00:48:31;6.90;90.70
38788;DHT22;24536;45.488;12.238;2024-01-15T00:50:57;6.90;90.50
38788;DHT22;24536;45.488;12.238;2024-01-15T00:53:22;7.00;90.40
38788;DHT22;24536;45.488;12.238;2024-01-15T00:55:48;7.00;90.40
38788;DHT22;24536;45.488;12.238;2024-01-15T00:58:14;7.00;90.20
38788;DHT22;24536;45.488;12.238;2024-01-15T01:00:40;7.00;90.30
38788;DHT22;24536;45.488;12.238;2024-01-15T01:03:06;7.00;90.20
38788;DHT22;24536;45.488;12.238;2024-01-15T01:05:33;7.00;90.20
38788;DHT22;24536;45.488;12.238;2024-01-15T01:07:59;7.10;90.30
38788;DHT22;24536;45.488;12.238;2024-01-15T01:10:24;7.10;90.30
38788;DHT22;24536;45.488;12.238;2024-01-15T01:12:50;7.10;90.30
38788;DHT22;24536;45.488;12.238;2024-01-15T01:15:16;7.10;90.30
38788;DHT22;24536;45.488;12.238;2024-01-15T01:17:41;7.10;90.30
38788;DHT22;24536;45.488;12.238;2024-01-15T01:20:08;7.10;90.20
38788;DHT22;24536;45.488;12.238;2024-01-15T01:22:35;7.10;90.20
38788;DHT22;24536;45.488;12.238;2024-01-15T01:25:00;7.00;90.20
38788;DHT22;24536;45.488;12.238;2024-01-15T01:27:26;7.00;90.30
38788;DHT22;24536;45.488;12.238;2024-01-15T01:29:52;6.90;90.40
38788;DHT22;24536;45.488;12.238;2024-01-15T01:32:18;6.80;90.50
38788;DHT22;24536;45.488;12.238;2024-01-15T01:34:44;6.70;90.60
38788;DHT22;24536;45.488;12.238;2024-01-15T01:37:10;6.70;90.70
38788;DHT22;24536;45.488;12.238;2024-01-15T01:39:39;6.70;90.60
38788;DHT22;24536;45.488;12.238;2024-01-15T01:42:05;6.70;90.70
38788;DHT22;24536;45.488;12.238;2024-01-15T01:44:30;6.70;90.70
38788;DHT22;24536;45.488;12.238;2024-01-15T01:46:58;6.70;90.80
38788;DHT22;24536;45.488;12.238;2024-01-15T01:49:25;6.60;90.90
38788;DHT22;24536;45.488;12.238;2024-01-15T01:51:51;6.60;90.90
38788;DHT22;24536;45.488;12.238;2024-01-15T01:54:18;6.70;91.00
38788;DHT22;24536;45.488;12.238;2024-01-15T01:56:46;6.70;91.00
38788;DHT22;24536;45.488;12.238;2024-01-15T01:59:13;6.70;91.10
38788;DHT22;24536;45.488;12.238;2024-01-15T02:01:39;6.70;91.10
38788;DHT22;24536;45.488;12.238;2024-01-15T02:04:05;6.70;91.10
38788;DHT22;24536;45.488;12.238;2024-01-15T02:06:31;6.70;91.30
38788;DHT22;24536;45.488;12.238;2024-01-15T02:08:56;6.60;91.40
38788;DHT22;24536;45.488;12.238;2024-01-15T02:11:22;6.60;91.40
38788;DHT22;24536;45.488;12.238;2024-01-15T02:13:48;6.60;91.40
38788;DHT22;24536;45.488;12.238;2024-01-15T02:16:14;6.60;91.50
38788;DHT22;24536;45.488;12.238;2024-01-15T02:18:43;6.60;91.50
38788;DHT22;24536;45.488;12.238;2024-01-15T02:21:10;6.60;91.50
38788;DHT22;24536;45.488;12.238;2024-01-15T02:23:36;6.60;91.60
38788;DHT22;24536;45.488;12.238;2024-01-15T02:26:02;6.60;91.60
38788;DHT22;24536;45.488;12.238;2024-01-15T02:28:29;6.70;91.70
38788;DHT22;24536;45.488;12.238;2024-01-15T02:30:55;6.70;91.50
38788;DHT22;24536;45.488;12.238;2024-01-15T02:33:20;6.70;91.50
38788;DHT22;24536;45.488;12.238;2024-01-15T02:35:46;6.60;91.60
38788;DHT22;24536;45.488;12.238;2024-01-15T02:38:12;6.60;91.70
38788;DHT22;24536;45.488;12.238;2024-01-15T02:40:38;6.40;92.00
38788;DHT22;24536;45.488;12.238;2024-01-15T02:43:04;6.40;92.00
38788;DHT22;24536;45.488;12.238;2024-01-15T02:45:30;6.40;91.90
38788;DHT22;24536;45.488;12.238;2024-01-15T02:47:55;6.40;91.90
38788;DHT22;24536;45.488;12.238;2024-01-15T02:50:21;6.40;92.00
38788;DHT22;24536;45.488;12.238;2024-01-15T02:52:47;6.50;91.90
38788;DHT22;24536;45.488;12.238;2024-01-15T02:55:13;6.40;91.90
38788;DHT22;24536;45.488;12.238;2024-01-15T02:57:38;6.30;92.00
38788;DHT22;24536;45.488;12.238;2024-01-15T03:00:04;6.30;92.00
38788;DHT22;24536;45.488;12.238;2024-01-15T03:02:30;6.40;92.00
38788;DHT22;24536;45.488;12.238;2024-01-15T03:04:59;6.40;92.10
38788;DHT22;24536;45.488;12.238;2024-01-15T03:07:26;6.40;92.10
38788;DHT22;24536;45.488;12.238;2024-01-15T03:09:52;6.30;92.20
38788;DHT22;24536;45.488;12.238;2024-01-15T03:12:18;6.30;92.30
38788;DHT22;24536;45.488;12.238;2024-01-15T03:14:43;6.30;92.20
38788;DHT22;24536;45.488;12.238;2024-01-15T03:17:09;6.40;92.30
38788;DHT22;24536;45.488;12.238;2024-01-15T03:19:35;6.40;92.30
38788;DHT22;24536;45.488;12.238;2024-01-15T03:22:01;6.40;92.30
38788;DHT22;24536;45.488;12.238;2024-01-15T03:24:29;6.30;92.30
38788;DHT22;24536;45.488;12.238;2024-01-15T03:26:54;6.40;92.30
38788;DHT22;24536;45.488;12.238;2024-01-15T03:29:20;6.40;92.30
38788;DHT22;24536;45.488;12.238;2024-01-15T03:31:46;6.40;92.30
38788;DHT22;24536;45.488;12.238;2024-01-15T03:34:12;6.40;92.20
38788;DHT22;24536;45.488;12.238;2024-01-15T03:36:37;6.40;92.40
38788;DHT22;24536;45.488;12.238;2024-01-15T03:39:03;6.40;92.20
38788;DHT22;24536;45.488;12.238;2024-01-15T03:41:29;6.40;92.20
38788;DHT22;24536;45.488;12.238;2024-01-15T03:43:54;6.40;92.20
38788;DHT22;24536;45.488;12.238;2024-01-15T03:46:20;6.50;92.30
38788;DHT22;24536;45.488;12.238;2024-01-15T03:48:45;6.50;92.20
38788;DHT22;24536;45.488;12.238;2024-01-15T03:51:11;6.40;92.20
38788;DHT22;24536;45.488;12.238;2024-01-15T03:53:38;6.50;92.20
38788;DHT22;24536;45.488;12.238;2024-01-15T03:56:04;6.50;92.10
38788;DHT22;24536;45.488;12.238;2024-01-15T03:58:30;6.50;92.10
38788;DHT22;24536;45.488;12.238;2024-01-15T04:00:56;6.60;92.00
38788;DHT22;24536;45.488;12.238;2024-01-15T04:03:21;6.60;92.00
38788;DHT22;24536;45.488;12.238;2024-01-15T04:05:47;6.60;92.00
38788;DHT22;24536;45.488;12.238;2024-01-15T04:08:12;6.60;91.90
38788;DHT22;24536;45.488;12.238;2024-01-15T04:10:38;6.60;91.80
38788;DHT22;24536;45.488;12.238;2024-01-15T04:13:04;6.60;91.90
38788;DHT22;24536;45.488;12.238;2024-01-15T04:15:29;6.60;91.90
38788;DHT22;24536;45.488;12.238;2024-01-15T04:17:55;6.60;91.90
38788;DHT22;24536;45.488;12.238;2024-01-15T04:20:21;6.50;92.00
38788;DHT22;24536;45.488;12.238;2024-01-15T04:22:46;6.40;92.00
38788;DHT22;24536;45.488;12.238;2024-01-15T04:25:12;6.40;92.00
38788;DHT22;24536;45.488;12.238;2024-01-15T04:27:38;6.40;92.10
38788;DHT22;24536;45.488;12.238;2024-01-15T04:30:04;6.40;92.10
38788;DHT22;24536;45.488;12.238;2024-01-15T04:32:29;6.40;92.10
38788;DHT22;24536;45.488;12.238;2024-01-15T04:34:55;6.30;92.30
38788;DHT22;24536;45.488;12.238;2024-01-15T04:37:21;6.30;92.40
38788;DHT22;24536;45.488;12.238;2024-01-15T04:39:46;6.30;92.40
38788;DHT22;24536;45.488;12.238;2024-01-15T04:42:12;6.30;92.30
38788;DHT22;24536;45.488;12.238;2024-01-15T04:44:38;6.40;92.30
38788;DHT22;24536;45.488;12.238;2024-01-15T04:47:03;6.40;92.30
38788;DHT22;24536;45.488;12.238;2024-01-15T04:49:29;6.30;92.20
38788;DHT22;24536;45.488;12.238;2024-01-15T04:51:55;6.30;92.60
38788;DHT22;24536;45.488;12.238;2024-01-15T04:54:21;6.20;92.30
38788;DHT22;24536;45.488;12.238;2024-01-15T04:56:46;6.20;92.40
38788;DHT22;24536;45.488;12.238;2024-01-15T04:59:13;6.20;92.30
38788;DHT22;24536;45.488;12.238;2024-01-15T05:01:40;6.20;92.30
38788;DHT22;24536;45.488;12.238;2024-01-15T05:04:05;6.20;92.30
38788;DHT22;24536;45.488;12.238;2024-01-15T05:06:31;6.30;92.30
38788;DHT22;24536;45.488;12.238;2024-01-15T05:08:57;6.30;92.40
38788;DHT22;24536;45.488;12.238;2024-01-15T05:11:22;6.40;92.40
38788;DHT22;24536;45.488;12.238;2024-01-15T05:13:48;6.40;92.20
38788;DHT22;24536;45.488;12.238;2024-01-15T05:16:14;6.40;92.10
38788;DHT22;24536;45.488;12.238;2024-01-15T05:18:39;6.40;92.00
38788;DHT22;24536;45.488;12.238;2024-01-15T05:21:05;6.50;92.00
38788;DHT22;24536;45.488;12.238;2024-01-15T05:23:34;6.50;92.00
38788;DHT22;24536;45.488;12.238;2024-01-15T05:25:59;6.50;91.90
38788;DHT22;24536;45.488;12.238;2024-01-15T05:28:25;6.50;91.90
38788;DHT22;24536;45.488;12.238;2024-01-15T05:30:51;6.50;91.90
38788;DHT22;24536;45.488;12.238;2024-01-15T05:33:17;6.40;91.80
38788;DHT22;24536;45.488;12.238;2024-01-15T05:35:43;6.40;91.90
38788;DHT22;24536;45.488;12.238;2024-01-15T05:38:09;6.40;91.90
38788;DHT22;24536;45.488;12.238;2024-01-15T05:40:34;6.30;91.90
38788;DHT22;24536;45.488;12.238;2024-01-15T05:43:00;6.30;92.00
38788;DHT22;24536;45.488;12.238;2024-01-15T05:45:26;6.30;92.00
38788;DHT22;24536;45.488;12.238;2024-01-15T05:47:52;6.40;92.00
38788;DHT22;24536;45.488;12.238;2024-01-15T05:50:17;6.40;91.90
38788;DHT22;24536;45.488;12.238;2024-01-15T05:52:43;6.40;91.80
38788;DHT22;24536;45.488;12.238;2024-01-15T05:55:09;6.30;91.70
38788;DHT22;24536;45.488;12.238;2024-01-15T05:57:35;6.30;91.80
38788;DHT22;24536;45.488;12.238;2024-01-15T06:00:01;6.30;91.90
38788;DHT22;24536;45.488;12.238;2024-01-15T06:02:28;6.30;92.00
38788;DHT22;24536;45.488;12.238;2024-01-15T06:04:53;6.30;91.90
38788;DHT22;24536;45.488;12.238;2024-01-15T06:07:19;6.30;91.90
38788;DHT22;24536;45.488;12.238;2024-01-15T06:09:45;6.30;91.90
38788;DHT22;24536;45.488;12.238;2024-01-15T06:12:10;6.30;91.90
38788;DHT22;24536;45.488;12.238;2024-01-15T06:14:36;6.30;91.90
38788;DHT22;24536;45.488;12.238;2024-01-15T06:17:02;6.30;91.90
38788;DHT22;24536;45.488;12.238;2024-01-15T06:19:28;6.30;92.00
38788;DHT22;24536;45.488;12.238;2024-01-15T06:21:53;6.30;91.90
38788;DHT22;24536;45.488;12.238;2024-01-15T06:24:19;6.20;92.20
38788;DHT22;24536;45.488;12.238;2024-01-15T06:26:46;6.30;92.00
38788;DHT22;24536;45.488;12.238;2024-01-15T06:29:12;6.30;91.90
38788;DHT22;24536;45.488;12.238;2024-01-15T06:31:38;6.30;91.90
38788;DHT22;24536;45.488;12.238;2024-01-15T06:34:03;6.30;91.70
38788;DHT22;24536;45.488;12.238;2024-01-15T06:36:29;6.30;91.70
38788;DHT22;24536;45.488;12.238;2024-01-15T06:38:55;6.30;91.70
38788;DHT22;24536;45.488;12.238;2024-01-15T06:41:21;6.30;91.70
38788;DHT22;24536;45.488;12.238;2024-01-15T06:43:48;6.30;91.70
38788;DHT22;24536;45.488;12.238;2024-01-15T06:46:20;6.30;91.70
38788;DHT22;24536;45.488;12.238;2024-01-15T06:48:46;6.30;91.70
38788;DHT22;24536;45.488;12.238;2024-01-15T06:51:11;6.30;91.70
38788;DHT22;24536;45.488;12.238;2024-01-15T06:53:37;6.30;91.70
38788;DHT22;24536;45.488;12.238;2024-01-15T06:56:03;6.30;91.60
38788;DHT22;24536;45.488;12.238;2024-01-15T06:58:31;6.30;91.60
38788;DHT22;24536;45.488;12.238;2024-01-15T07:00:56;6.30;91.60
38788;DHT22;24536;45.488;12.238;2024-01-15T07:03:23;6.30;91.60
38788;DHT22;24536;45.488;12.238;2024-01-15T07:05:49;6.30;93.10
38788;DHT22;24536;45.488;12.238;2024-01-15T07:08:15;6.50;92.30
38788;DHT22;24536;45.488;12.238;2024-01-15T07:10:41;6.50;91.80
38788;DHT22;24536;45.488;12.238;2024-01-15T07:13:06;6.50;91.70
38788;DHT22;24536;45.488;12.238;2024-01-15T07:15:32;6.50;91.60
38788;DHT22;24536;45.488;12.238;2024-01-15T07:17:58;6.50;91.50
38788;DHT22;24536;45.488;12.238;2024-01-15T07:20:23;6.50;91.60
38788;DHT22;24536;45.488;12.238;2024-01-15T07:22:49;6.40;91.50
38788;DHT22;24536;45.488;12.238;2024-01-15T07:25:15;6.40;91.50
38788;DHT22;24536;45.488;12.238;2024-01-15T07:27:42;6.40;91.60
38788;DHT22;24536;45.488;12.238;2024-01-15T07:30:13;6.40;91.70
38788;DHT22;24536;45.488;12.238;2024-01-15T07:32:39;6.40;91.70
38788;DHT22;24536;45.488;12.238;2024-01-15T07:35:06;6.40;91.40
38788;DHT22;24536;45.488;12.238;2024-01-15T07:37:31;6.50;91.50
38788;DHT22;24536;45.488;12.238;2024-01-15T07:39:57;6.40;91.50
38788;DHT22;24536;45.488;12.238;2024-01-15T07:42:23;6.40;91.40
38788;DHT22;24536;45.488;12.238;2024-01-15T07:44:49;6.20;91.60
38788;DHT22;24536;45.488;12.238;2024-01-15T07:47:17;6.20;91.60
38788;DHT22;24536;45.488;12.238;2024-01-15T07:49:43;6.30;91.60
38788;DHT22;24536;45.488;12.238;2024-01-15T07:52:10;6.30;91.50
38788;DHT22;24536;45.488;12.238;2024-01-15T07:54:36;6.30;91.60
38788;DHT22;24536;45.488;12.238;2024-01-15T07:57:03;6.40;91.60
38788;DHT22;24536;45.488;12.238;2024-01-15T07:59:29;6.40;91.50
38788;DHT22;24536;45.488;12.238;2024-01-15T08:01:55;6.50;91.60
38788;DHT22;24536;45.488;12.238;2024-01-15T08:04:21;6.60;91.40
38788;DHT22;24536;45.488;12.238;2024-01-15T08:06:47;6.60;90.90
38788;DHT22;24536;45.488;12.238;2024-01-15T08:09:13;6.40;90.60
38788;DHT22;24536;45.488;12.238;2024-01-15T08:11:48;6.30;90.80
38788;DHT22;24536;45.488;12.238;2024-01-15T08:14:14;6.40;91.00
38788;DHT22;24536;45.488;12.238;2024-01-15T08:16:40;6.40;91.10
38788;DHT22;24536;45.488;12.238;2024-01-15T08:19:06;6.50;90.90
38788;DHT22;24536;45.488;12.238;2024-01-15T08:21:32;6.40;90.90
38788;DHT22;24536;45.488;12.238;2024-01-15T08:23:59;6.40;91.00
38788;DHT22;24536;45.488;12.238;2024-01-15T08:26:25;6.30;90.90
38788;DHT22;24536;45.488;12.238;2024-01-15T08:28:51;6.40;91.00
38788;DHT22;24536;45.488;12.238;2024-01-15T08:31:17;6.40;91.00
38788;DHT22;24536;45.488;12.238;2024-01-15T08:33:42;6.50;91.00
38788;DHT22;24536;45.488;12.238;2024-01-15T08:36:09;6.50;91.00
38788;DHT22;24536;45.488;12.238;2024-01-15T08:38:35;6.60;90.90
38788;DHT22;24536;45.488;12.238;2024-01-15T08:41:01;6.60;90.90
38788;DHT22;24536;45.488;12.238;2024-01-15T08:43:27;6.60;90.80
38788;DHT22;24536;45.488;12.238;2024-01-15T08:45:53;6.60;90.60
38788;DHT22;24536;45.488;12.238;2024-01-15T08:48:18;6.70;90.60
38788;DHT22;24536;45.488;12.238;2024-01-15T08:50:44;6.70;90.70
38788;DHT22;24536;45.488;12.238;2024-01-15T08:53:13;6.70;90.70
38788;DHT22;24536;45.488;12.238;2024-01-15T08:55:39;6.80;90.70
38788;DHT22;24536;45.488;12.238;2024-01-15T08:58:05;6.80;90.50
38788;DHT22;24536;45.488;12.238;2024-01-15T09:00:31;6.80;90.60
38788;DHT22;24536;45.488;12.238;2024-01-15T09:02:57;6.90;90.60
38788;DHT22;24536;45.488;12.238;2024-01-15T09:05:23;6.90;90.50
38788;DHT22;24536;45.488;12.238;2024-01-15T09:07:48;6.90;90.20
38788;DHT22;24536;45.488;12.238;2024-01-15T09:10:16;7.00;90.30
38788;DHT22;24536;45.488;12.238;2024-01-15T09:12:42;6.90;90.10
38788;DHT22;24536;45.488;12.238;2024-01-15T09:15:08;7.00;90.30
38788;DHT22;24536;45.488;12.238;2024-01-15T09:17:34;7.00;90.10
38788;DHT22;24536;45.488;12.238;2024-01-15T09:19:59;7.00;89.80
38788;DHT22;24536;45.488;12.238;2024-01-15T09:22:25;7.00;90.10
38788;DHT22;24536;45.488;12.238;2024-01-15T09:24:52;7.00;89.90
38788;DHT22;24536;45.488;12.238;2024-01-15T09:27:17;7.00;90.00
38788;DHT22;24536;45.488;12.238;2024-01-15T09:29:43;6.90;89.70
38788;DHT22;24536;45.488;12.238;2024-01-15T09:32:11;7.00;90.10
38788;DHT22;24536;45.488;12.238;2024-01-15T09:34:38;7.00;90.00
38788;DHT22;24536;45.488;12.238;2024-01-15T09:37:04;7.10;90.20
38788;DHT22;24536;45.488;12.238;2024-01-15T09:39:30;7.10;90.00
38788;DHT22;24536;45.488;12.238;2024-01-15T09:41:56;7.20;90.10
38788;DHT22;24536;45.488;12.238;2024-01-15T09:44:23;7.20;90.10
38788;DHT22;24536;45.488;12.238;2024-01-15T09:46:48;7.20;90.00
38788;DHT22;24536;45.488;12.238;2024-01-15T09:49:18;7.20;90.10
38788;DHT22;24536;45.488;12.238;2024-01-15T09:51:44;7.30;90.20
38788;DHT22;24536;45.488;12.238;2024-01-15T09:54:10;7.40;90.20
38788;DHT22;24536;45.488;12.238;2024-01-15T09:56:39;7.50;90.20
38788;DHT22;24536;45.488;12.238;2024-01-15T09:59:05;7.50;90.10
38788;DHT22;24536;45.488;12.238;2024-01-15T10:01:32;7.60;89.80
38788;DHT22;24536;45.488;12.238;2024-01-15T10:03:59;7.60;90.00
38788;DHT22;24536;45.488;12.238;2024-01-15T10:06:27;7.70;89.90
38788;DHT22;24536;45.488;12.238;2024-01-15T10:08:57;7.80;90.00
38788;DHT22;24536;45.488;12.238;2024-01-15T10:11:26;7.80;89.20
38788;DHT22;24536;45.488;12.238;2024-01-15T10:13:52;7.80;89.30
38788;DHT22;24536;45.488;12.238;2024-01-15T10:16:21;7.80;89.40
38788;DHT22;24536;45.488;12.238;2024-01-15T10:18:48;7.90;89.70
38788;DHT22;24536;45.488;12.238;2024-01-15T10:21:14;7.90;89.30
38788;DHT22;24536;45.488;12.238;2024-01-15T10:23:41;7.90;89.40
38788;DHT22;24536;45.488;12.238;2024-01-15T10:26:07;7.90;89.30
38788;DHT22;24536;45.488;12.238;2024-01-15T10:28:33;8.00;89.20
38788;DHT22;24536;45.488;12.238;2024-01-15T10:30:59;8.00;89.00
38788;DHT22;24536;45.488;12.238;2024-01-15T10:33:26;8.10;89.00
38788;DHT22;24536;45.488;12.238;2024-01-15T10:36:00;8.10;88.00
38788;DHT22;24536;45.488;12.238;2024-01-15T10:38:26;8.20;88.50
38788;DHT22;24536;45.488;12.238;2024-01-15T10:40:54;8.10;88.30
38788;DHT22;24536;45.488;12.238;2024-01-15T10:43:20;8.10;88.30
38788;DHT22;24536;45.488;12.238;2024-01-15T10:45:46;8.10;88.50
38788;DHT22;24536;45.488;12.238;2024-01-15T10:48:13;8.20;88.80
38788;DHT22;24536;45.488;12.238;2024-01-15T10:50:38;8.30;89.40
38788;DHT22;24536;45.488;12.238;2024-01-15T10:53:05;8.30;89.40
38788;DHT22;24536;45.488;12.238;2024-01-15T10:55:32;8.30;87.70
38788;DHT22;24536;45.488;12.238;2024-01-15T10:57:59;8.30;88.10
38788;DHT22;24536;45.488;12.238;2024-01-15T11:00:25;8.30;88.10
38788;DHT22;24536;45.488;12.238;2024-01-15T11:02:51;8.40;88.30
38788;DHT22;24536;45.488;12.238;2024-01-15T11:05:21;8.40;88.10
38788;DHT22;24536;45.488;12.238;2024-01-15T11:07:49;8.40;88.60
38788;DHT22;24536;45.488;12.238;2024-01-15T11:10:47;8.30;88.00
38788;DHT22;24536;45.488;12.238;2024-01-15T11:13:22;8.50;88.50
38788;DHT22;24536;45.488;12.238;2024-01-15T11:15:55;8.30;87.90
38788;DHT22;24536;45.488;12.238;2024-01-15T11:18:21;8.30;88.70
38788;DHT22;24536;45.488;12.238;2024-01-15T11:23:49;8.10;89.00
38788;DHT22;24536;45.488;12.238;2024-01-15T11:28:57;8.40;88.90
38788;DHT22;24536;45.488;12.238;2024-01-15T11:34:16;8.60;88.80
38788;DHT22;24536;45.488;12.238;2024-01-15T11:41:54;9.10;88.20
38788;DHT22;24536;45.488;12.238;2024-01-15T11:44:21;9.40;88.40
38788;DHT22;24536;45.488;12.238;2024-01-15T11:49:58;10.10;84.60
38788;DHT22;24536;45.488;12.238;2024-01-15T11:52:24;10.00;83.90
38788;DHT22;24536;45.488;12.238;2024-01-15T11:55:14;10.20;84.70
38788;DHT22;24536;45.488;12.238;2024-01-15T11:57:46;10.20;83.90
38788;DHT22;24536;45.488;12.238;2024-01-15T12:00:12;10.00;83.20
38788;DHT22;24536;45.488;12.238;2024-01-15T12:02:40;10.00;83.80
38788;DHT22;24536;45.488;12.238;2024-01-15T12:05:10;10.00;84.40
38788;DHT22;24536;45.488;12.238;2024-01-15T12:07:41;10.00;84.60
38788;DHT22;24536;45.488;12.238;2024-01-15T12:10:14;10.00;83.70
38788;DHT22;24536;45.488;12.238;2024-01-15T12:15:15;10.00;82.80
38788;DHT22;24536;45.488;12.238;2024-01-15T12:17:41;9.80;82.70
38788;DHT22;24536;45.488;12.238;2024-01-15T12:20:07;9.70;83.70
38788;DHT22;24536;45.488;12.238;2024-01-15T12:22:33;9.70;83.40
38788;DHT22;24536;45.488;12.238;2024-01-15T12:24:59;9.80;83.30
38788;DHT22;24536;45.488;12.238;2024-01-15T12:27:25;10.30;84.30
38788;DHT22;24536;45.488;12.238;2024-01-15T12:29:53;11.20;81.20
38788;DHT22;24536;45.488;12.238;2024-01-15T12:32:19;11.60;80.70
38788;DHT22;24536;45.488;12.238;2024-01-15T12:34:46;11.90;80.40
38788;DHT22;24536;45.488;12.238;2024-01-15T12:37:11;12.10;79.50
38788;DHT22;24536;45.488;12.238;2024-01-15T12:39:43;12.10;77.70
38788;DHT22;24536;45.488;12.238;2024-01-15T12:42:09;12.00;78.60
38788;DHT22;24536;45.488;12.238;2024-01-15T12:44:35;11.90;78.20
38788;DHT22;24536;45.488;12.238;2024-01-15T12:47:04;11.80;78.00
38788;DHT22;24536;45.488;12.238;2024-01-15T12:49:30;11.80;78.90
38788;DHT22;24536;45.488;12.238;2024-01-15T12:51:59;12.10;78.80
38788;DHT22;24536;45.488;12.238;2024-01-15T12:54:25;12.40;77.50
38788;DHT22;24536;45.488;12.238;2024-01-15T12:56:52;12.30;77.50
38788;DHT22;24536;45.488;12.238;2024-01-15T12:59:18;12.70;78.30
38788;DHT22;24536;45.488;12.238;2024-01-15T13:01:45;13.00;75.80
38788;DHT22;24536;45.488;12.238;2024-01-15T13:04:20;13.10;77.50
38788;DHT22;24536;45.488;12.238;2024-01-15T13:06:46;13.10;75.60
38788;DHT22;24536;45.488;12.238;2024-01-15T13:09:12;13.60;76.20
38788;DHT22;24536;45.488;12.238;2024-01-15T13:11:37;13.30;74.10
38788;DHT22;24536;45.488;12.238;2024-01-15T13:14:03;13.60;75.80
38788;DHT22;24536;45.488;12.238;2024-01-15T13:16:29;13.90;75.50
38788;DHT22;24536;45.488;12.238;2024-01-15T13:18:55;14.10;74.20
38788;DHT22;24536;45.488;12.238;2024-01-15T13:21:22;14.10;74.30
38788;DHT22;24536;45.488;12.238;2024-01-15T13:23:47;14.00;71.80
38788;DHT22;24536;45.488;12.238;2024-01-15T13:26:13;14.30;73.70
38788;DHT22;24536;45.488;12.238;2024-01-15T13:28:39;14.30;73.10
38788;DHT22;24536;45.488;12.238;2024-01-15T13:31:08;14.30;72.80
38788;DHT22;24536;45.488;12.238;2024-01-15T13:33:34;14.00;72.50
38788;DHT22;24536;45.488;12.238;2024-01-15T13:36:00;13.60;72.40
38788;DHT22;24536;45.488;12.238;2024-01-15T13:38:25;13.40;73.30
38788;DHT22;24536;45.488;12.238;2024-01-15T13:40:53;13.20;74.20
38788;DHT22;24536;45.488;12.238;2024-01-15T13:43:20;13.00;74.70
38788;DHT22;24536;45.488;12.238;2024-01-15T13:45:46;12.70;75.20
38788;DHT22;24536;45.488;12.238;2024-01-15T13:48:12;12.10;75.90
38788;DHT22;24536;45.488;12.238;2024-01-15T13:50:38;12.00;76.50
38788;DHT22;24536;45.488;12.238;2024-01-15T13:53:04;11.90;77.90
38788;DHT22;24536;45.488;12.238;2024-01-15T13:55:30;11.80;77.60
38788;DHT22;24536;45.488;12.238;2024-01-15T13:57:56;11.80;77.70
38788;DHT22;24536;45.488;12.238;2024-01-15T14:00:21;11.80;78.00
38788;DHT22;24536;45.488;12.238;2024-01-15T14:02:48;11.80;78.60
38788;DHT22;24536;45.488;12.238;2024-01-15T14:05:14;11.60;78.90
38788;DHT22;24536;45.488;12.238;2024-01-15T14:07:40;11.50;79.20
38788;DHT22;24536;45.488;12.238;2024-01-15T14:10:06;11.20;79.80
38788;DHT22;24536;45.488;12.238;2024-01-15T14:12:33;10.90;81.30
38788;DHT22;24536;45.488;12.238;2024-01-15T14:15:03;10.70;81.00
38788;DHT22;24536;45.488;12.238;2024-01-15T14:17:29;10.70;81.30
38788;DHT22;24536;45.488;12.238;2024-01-15T14:19:55;10.70;81.60
38788;DHT22;24536;45.488;12.238;2024-01-15T14:22:20;10.70;81.70
38788;DHT22;24536;45.488;12.238;2024-01-15T14:24:46;10.60;82.20
38788;DHT22;24536;45.488;12.238;2024-01-15T14:27:12;10.30;82.90
38788;DHT22;24536;45.488;12.238;2024-01-15T14:29:37;10.20;83.50
38788;DHT22;24536;45.488;12.238;2024-01-15T14:32:03;10.20;83.00
38788;DHT22;24536;45.488;12.238;2024-01-15T14:34:29;10.20;83.50
38788;DHT22;24536;45.488;12.238;2024-01-15T14:36:55;10.30;83.60
38788;DHT22;24536;45.488;12.238;2024-01-15T14:39:24;10.30;83.60
38788;DHT22;24536;45.488;12.238;2024-01-15T14:41:51;10.20;84.00
38788;DHT22;24536;45.488;12.238;2024-01-15T14:44:17;10.20;84.20
38788;DHT22;24536;45.488;12.238;2024-01-15T14:46:43;10.10;84.20
38788;DHT22;24536;45.488;12.238;2024-01-15T14:49:09;10.10;84.30
38788;DHT22;24536;45.488;12.238;2024-01-15T14:51:34;9.90;84.70
38788;DHT22;24536;45.488;12.238;2024-01-15T14:54:00;9.80;85.30
38788;DHT22;24536;45.488;12.238;2024-01-15T14:56:26;9.80;85.00
38788;DHT22;24536;45.488;12.238;2024-01-15T14:58:51;9.90;85.40
38788;DHT22;24536;45.488;12.238;2024-01-15T15:01:17;10.00;85.20
38788;DHT22;24536;45.488;12.238;2024-01-15T15:03:43;10.00;85.10
38788;DHT22;24536;45.488;12.238;2024-01-15T15:06:09;10.00;85.00
38788;DHT22;24536;45.488;12.238;2024-01-15T15:08:36;10.00;85.00
38788;DHT22;24536;45.488;12.238;2024-01-15T15:11:03;10.00;85.20
38788;DHT22;24536;45.488;12.238;2024-01-15T15:13:29;10.00;85.50
38788;DHT22;24536;45.488;12.238;2024-01-15T15:15:54;10.00;85.80
38788;DHT22;24536;45.488;12.238;2024-01-15T15:18:21;10.00;86.00
38788;DHT22;24536;45.488;12.238;2024-01-15T15:20:50;9.90;86.20
38788;DHT22;24536;45.488;12.238;2024-01-15T15:23:16;9.80;86.40
38788;DHT22;24536;45.488;12.238;2024-01-15T15:25:42;9.80;86.80
38788;DHT22;24536;45.488;12.238;2024-01-15T15:28:09;9.60;87.00
38788;DHT22;24536;45.488;12.238;2024-01-15T15:30:37;9.60;87.10
38788;DHT22;24536;45.488;12.238;2024-01-15T15:33:02;9.50;87.30
38788;DHT22;24536;45.488;12.238;2024-01-15T15:35:28;9.50;87.50
38788;DHT22;24536;45.488;12.238;2024-01-15T15:37:54;9.50;87.60
38788;DHT22;24536;45.488;12.238;2024-01-15T15:40:20;9.50;87.90
38788;DHT22;24536;45.488;12.238;2024-01-15T15:42:46;9.40;88.10